• Join FlightAware (Why Join?)
  • Login
  • US Flag 
11:31PM EDT


 

Airport Tracker/Info


-or-


 

Live Flight TrackerFlight Track Log ✈ CNK274 ✈ 11-Jun-2013 ✈ CYEG - CYYC

Flight Track Log - Related Links

Times and Time Zones

All times are in EDT time to prevent confusion due to time zone crossing. See the CNK274 flight status page for this flight to view local times or setup timezone preferences in your user account.

Time Position Orientation Groundspeed Altitude Reporting Facility
EDT Latitude Longitude Course Direction KTS MPH feet Rate Location/Type
06:27PM 53.3167 -113.5833 160° South 160 184 3,900  Level Edmonton Center
06:28PM 53.3333 -113.5333 61° Northeast 130 150 6,200 2,100 Climbing Edmonton Center
06:29PM 53.3000 -113.5000 149° Southeast 140 161 8,100 1,860 Climbing Edmonton Center
06:30PM 53.2667 -113.5000 180° South 170 196 10,000 1,800 Climbing Edmonton Center
06:31PM 53.2167 -113.4833 169° South 170 196 11,700 1,680 Climbing Edmonton Center
06:32PM 52.9371 -113.6576 180° South  Level Estimated
06:32PM 53.1667 -113.5000 191° South 170 196 13,400  Level Edmonton Center
06:33PM 52.8782 -113.6227 160° South  Level FlightAware Approximate
06:33PM 53.1167 -113.4833 169° South 170 196 15,000  Level Edmonton Center
06:34PM 53.0667 -113.5000 191° South 180 207 16,200 1,200 Climbing Edmonton Center
06:35PM 53.0333 -113.5000 180° South 180 207 17,500 1,200 Climbing Edmonton Center
06:36PM 52.9833 -113.5167 191° South 170 196 18,600 720 Climbing Edmonton Center
06:37PM 52.9333 -113.5000 169° South 190 219 19,000 180 Climbing Edmonton Center
06:38PM 52.8667 -113.5167 189° South 220 253 19,000  Level Edmonton Center
06:39PM 52.7833 -113.5333 187° South 230 265 19,000  Level Edmonton Center
06:40PM 52.7333 -113.5167 169° South 240 276 19,000  Level Edmonton Center
06:41PM 52.6667 -113.5333 189° South 240 276 19,000  Level Edmonton Center
06:42PM 52.6000 -113.5500 189° South 240 276 19,000  Level Edmonton Center
06:43PM 52.5333 -113.5333 171° South 240 276 19,000  Level Edmonton Center
06:44PM 52.4667 -113.5500 189° South 230 265 19,000  Level Edmonton Center
06:45PM 52.4000 -113.5667 189° South 230 265 19,000  Level Edmonton Center
06:46PM 52.3333 -113.5500 171° South 230 265 19,000  Level Edmonton Center
06:47PM 52.2833 -113.5667 192° South 230 265 19,000  Level Edmonton Center
06:48PM 52.2167 -113.5833 189° South 240 276 19,000  Level Edmonton Center
06:49PM 52.1333 -113.6000 187° South 230 265 19,000 -600 Level Edmonton Center
06:50PM 52.0667 -113.5833 171° South 250 288 17,900 -960 Descending Edmonton Center
06:51PM 52.0000 -113.6000 189° South 260 299 17,100 -1,140 Descending Edmonton Center
06:52PM 51.9167 -113.6000 180° South 270 311 15,700 -1,320 Descending Edmonton Center
06:53PM 51.8500 -113.6167 189° South 270 311 14,500 -1,380 Descending Edmonton Center
06:54PM 51.7667 -113.6333 187° South 270 311 13,000 -1,380 Descending Edmonton Center
06:55PM 51.7000 -113.6667 197° South 270 311 11,800 -1,200 Descending Edmonton Center
06:56PM 51.6167 -113.6833 187° South 270 311 10,600 -1,080 Descending Edmonton Center
06:57PM 51.5500 -113.7500 212° Southwest 260 299 9,700 -900 Descending Edmonton Center
06:58PM 51.5000 -113.8167 220° Southwest 250 288 8,800 -900 Descending Edmonton Center
06:59PM 51.4333 -113.8833 212° Southwest 250 288 8,000 -660 Descending Edmonton Center
07:00PM 51.3833 -113.9333 212° Southwest 240 276 7,500 -780 Descending Edmonton Center
07:01PM 51.3333 -114.0000 220° Southwest 230 265 6,500 -540 Descending Edmonton Center
07:02PM 51.2833 -114.0500 212° Southwest 180 207 6,500 -120 Level Edmonton Center
07:03PM 51.2333 -114.0333 168° South 160 184 6,300 -600 Descending Edmonton Center
07:04PM 51.1833 -114.0500 192° South 170 196 5,400 -900 Descending Edmonton Center
07:05PM 51.1500 -114.0500 180° South 160 184 4,500 -600 Descending Edmonton Center
07:07PM 51.0833 -114.0333 171° South 100 115 3,600 -480 Descending Edmonton Center